createdAt,value
2022-09-13T00:02:15.502Z,75.76
2022-09-13T00:04:48.064Z,76.21
2022-09-13T00:07:20.113Z,75.85
2022-09-13T00:09:52.195Z,76.43
2022-09-13T00:12:26.764Z,76.58
2022-09-13T00:14:58.884Z,75.93
2022-09-13T00:17:30.733Z,76.56
2022-09-13T00:20:02.783Z,76.68
2022-09-13T00:22:34.562Z,76.64
2022-09-13T00:25:06.873Z,76.06
2022-09-13T00:27:41.396Z,77.01
2022-09-13T00:30:15.253Z,76.72
2022-09-13T00:32:46.893Z,77.01
2022-09-13T00:35:19.162Z,76.36
2022-09-13T00:37:51.817Z,76.26
2022-09-13T00:40:24.744Z,77.13
2022-09-13T00:42:59.319Z,77.12
2022-09-13T00:45:31.567Z,76.78
2022-09-13T00:48:08.479Z,77.09
2022-09-13T00:50:45.059Z,76.68
2022-09-13T00:53:23.313Z,76.46
2022-09-13T00:56:22.582Z,77.02
2022-09-13T00:59:41.596Z,77.07
2022-09-13T01:02:17.670Z,77.01
2022-09-13T01:04:49.416Z,77.11
2022-09-13T01:07:22.238Z,77.40
2022-09-13T01:09:56.161Z,77.29
2022-09-13T01:12:36.626Z,77.42
2022-09-13T01:15:09.813Z,77.78
2022-09-13T01:17:47.962Z,77.63
2022-09-13T01:20:19.525Z,78.08
2022-09-13T01:23:38.272Z,78.50
2022-09-13T01:26:47.633Z,77.64
2022-09-13T01:29:44.613Z,77.98
2022-09-13T01:32:29.242Z,77.81
2022-09-13T01:35:16.395Z,77.14
2022-09-13T01:37:57.633Z,78.31
2022-09-13T01:40:46.850Z,77.81
2022-09-13T01:43:42.477Z,78.25
2022-09-13T01:46:20.991Z,78.87
2022-09-13T01:49:13.114Z,77.26
2022-09-13T01:51:50.326Z,77.74
2022-09-13T01:54:30.033Z,78.38
2022-09-13T01:57:07.802Z,78.49
2022-09-13T01:59:47.343Z,77.94
2022-09-13T02:02:24.253Z,78.10
2022-09-13T02:05:05.152Z,78.48
2022-09-13T02:07:43.913Z,78.86
2022-09-13T02:10:21.262Z,77.77
2022-09-13T02:12:56.768Z,77.59
2022-09-13T02:15:33.081Z,78.24
2022-09-13T02:18:11.826Z,78.42
2022-09-13T02:20:49.360Z,78.75
2022-09-13T02:23:25.966Z,78.67
2022-09-13T02:25:59.160Z,77.91
2022-09-13T02:28:39.241Z,77.76
2022-09-13T02:31:13.271Z,78.75
2022-09-13T02:33:52.579Z,78.05
2022-09-13T02:36:29.827Z,78.71
2022-09-13T02:39:06.666Z,79.28
2022-09-13T02:41:46.359Z,79.14
2022-09-13T02:44:27.407Z,80.15
2022-09-13T02:47:22.706Z,80.80
2022-09-13T02:50:06.129Z,81.04
2022-09-13T02:52:53.509Z,81.47
2022-09-13T02:55:34.168Z,80.96
2022-09-13T02:58:13.157Z,80.86
2022-09-13T03:00:46.722Z,80.22
2022-09-13T03:03:21.159Z,80.43
2022-09-13T03:05:52.857Z,80.79
2022-09-13T03:08:27.757Z,81.54
2022-09-13T03:11:09.908Z,80.62
2022-09-13T03:13:59.427Z,80.37
2022-09-13T03:16:47.358Z,80.23
2022-09-13T03:19:35.212Z,80.80
2022-09-13T03:22:27.049Z,80.91
2022-09-13T03:25:10.073Z,80.19
2022-09-13T03:27:56.158Z,80.33
2022-09-13T03:30:42.766Z,80.65
2022-09-13T03:33:23.600Z,80.05
2022-09-13T03:36:00.490Z,80.06
2022-09-13T03:38:38.109Z,79.92
2022-09-13T03:41:17.718Z,79.65
2022-09-13T03:43:58.278Z,80.29
2022-09-13T03:46:35.401Z,80.52
2022-09-13T03:49:12.071Z,79.59
2022-09-13T03:51:44.660Z,80.64
2022-09-13T03:54:23.018Z,80.75
2022-09-13T03:57:25.311Z,81.66
2022-09-13T03:59:59.818Z,81.44
2022-09-13T04:02:32.198Z,81.60
2022-09-13T04:05:04.438Z,82.03
2022-09-13T04:07:36.584Z,80.92
2022-09-13T04:10:13.524Z,81.03
2022-09-13T04:12:50.718Z,81.40
2022-09-13T04:15:22.948Z,81.80
2022-09-13T04:17:56.039Z,81.07
2022-09-13T04:20:39.275Z,80.96
2022-09-13T04:23:11.528Z,80.63
2022-09-13T04:25:43.597Z,80.67
2022-09-13T04:28:21.508Z,80.69
2022-09-13T04:30:53.688Z,80.79
2022-09-13T04:33:25.598Z,79.95
2022-09-13T04:36:01.103Z,80.31
2022-09-13T04:38:32.958Z,80.40
2022-09-13T04:41:16.710Z,80.48
2022-09-13T04:43:52.499Z,80.01
2022-09-13T04:46:24.727Z,80.33
2022-09-13T04:48:56.588Z,79.28
2022-09-13T04:51:28.709Z,79.53
2022-09-13T04:54:00.618Z,79.10
2022-09-13T04:56:32.798Z,79.46
2022-09-13T04:59:07.419Z,79.33
2022-09-13T05:01:39.948Z,79.33
2022-09-13T05:04:13.200Z,79.58
2022-09-13T05:06:45.545Z,79.46
2022-09-13T05:09:18.559Z,79.70
2022-09-13T05:11:50.838Z,80.00
2022-09-13T05:14:25.840Z,80.08
2022-09-13T05:16:58.137Z,79.71
2022-09-13T05:19:30.097Z,79.18
2022-09-13T05:22:02.557Z,78.98
2022-09-13T05:24:34.258Z,79.54
2022-09-13T05:27:06.779Z,80.36
2022-09-13T05:29:41.357Z,80.32
2022-09-13T05:32:13.536Z,79.45
2022-09-13T05:34:45.957Z,79.11
2022-09-13T05:37:18.480Z,78.93
2022-09-13T05:40:12.750Z,78.12
2022-09-13T05:42:44.437Z,78.66
2022-09-13T05:45:19.118Z,78.21
2022-09-13T05:47:54.278Z,77.60
2022-09-13T05:50:54.249Z,77.80
2022-09-13T05:53:18.233Z,79.50
2022-09-13T05:55:50.175Z,82.00
2022-09-13T05:58:22.394Z,84.09
2022-09-13T06:00:59.934Z,85.21
2022-09-13T06:03:31.974Z,87.48
2022-09-13T06:06:03.964Z,87.88
2022-09-13T06:08:37.834Z,91.70
2022-09-13T06:11:12.172Z,92.02
2022-09-13T06:13:45.614Z,91.98
2022-09-13T06:16:21.043Z,92.49
2022-09-13T06:18:54.275Z,92.66
2022-09-13T06:21:29.147Z,94.82
2022-09-13T06:24:04.723Z,94.98
2022-09-13T06:26:36.620Z,95.08
2022-09-13T06:29:08.813Z,95.27
2022-09-13T06:31:45.415Z,96.11
2022-09-13T06:34:18.339Z,96.93
2022-09-13T06:36:50.175Z,97.42
2022-09-13T06:39:22.333Z,96.83
2022-09-13T06:41:56.787Z,97.24
2022-09-13T06:44:29.532Z,98.38
2022-09-13T06:47:04.113Z,98.02
2022-09-13T06:49:36.353Z,95.94
2022-09-13T06:52:08.292Z,96.60
2022-09-13T06:54:41.190Z,97.09
2022-09-13T06:57:13.190Z,96.23
2022-09-13T06:59:45.730Z,96.73
2022-09-13T07:02:20.574Z,95.34
2022-09-13T07:04:52.921Z,92.21
2022-09-13T07:07:24.885Z,91.59
2022-09-13T07:09:57.329Z,95.48
2022-09-13T07:12:29.201Z,95.49
2022-09-13T07:15:01.502Z,96.65
2022-09-13T07:17:38.963Z,91.71
2022-09-13T07:20:12.231Z,89.56
2022-09-13T07:22:44.105Z,89.50
2022-09-13T07:25:16.447Z,89.86
2022-09-13T07:27:48.544Z,90.64
2022-09-13T07:30:21.261Z,93.57
2022-09-13T07:32:56.303Z,92.98
2022-09-13T07:35:30.342Z,90.48
2022-09-13T07:38:02.532Z,87.87
2022-09-13T07:40:37.014Z,89.93
2022-09-13T07:43:09.371Z,87.65
2022-09-13T07:45:41.933Z,88.40
2022-09-13T07:48:17.371Z,89.69
2022-09-13T07:51:00.694Z,87.51
2022-09-13T07:53:33.494Z,84.48
2022-09-13T07:56:07.891Z,82.83
2022-09-13T07:58:42.196Z,83.62
2022-09-13T08:01:19.051Z,86.16
2022-09-13T08:03:58.459Z,85.29
2022-09-13T08:06:33.776Z,88.07
2022-09-13T08:09:06.653Z,87.86
2022-09-13T08:11:41.007Z,86.64
2022-09-13T08:14:18.731Z,88.79
2022-09-13T08:16:51.856Z,82.21
2022-09-13T08:19:29.045Z,79.60
2022-09-13T08:22:01.645Z,79.83
2022-09-13T08:24:33.886Z,84.48
2022-09-13T08:27:10.325Z,84.96
2022-09-13T08:29:42.686Z,84.02
2022-09-13T08:32:15.453Z,83.69
2022-09-13T08:34:50.527Z,80.60
2022-09-13T08:37:23.126Z,84.05
2022-09-13T08:39:55.431Z,82.91
2022-09-13T08:42:38.766Z,84.89
2022-09-13T08:45:12.365Z,85.55
2022-09-13T08:47:49.728Z,83.31
2022-09-13T08:50:27.534Z,84.15
2022-09-13T08:53:19.848Z,82.57
2022-09-13T08:55:59.249Z,82.00
2022-09-13T08:58:57.567Z,81.86
2022-09-13T09:01:41.495Z,78.12
2022-09-13T09:04:27.569Z,78.74
2022-09-13T09:07:08.449Z,76.27
2022-09-13T09:09:48.574Z,80.37
2022-09-13T09:12:30.695Z,78.66
2022-09-13T09:15:09.972Z,78.48
2022-09-13T09:17:50.005Z,78.38
2022-09-13T09:20:37.128Z,74.02
2022-09-13T09:23:21.314Z,72.00
2022-09-13T09:25:59.565Z,69.98
2022-09-13T09:28:31.967Z,65.76
2022-09-13T09:31:08.364Z,66.87
2022-09-13T09:33:58.687Z,65.40
2022-09-13T09:36:40.928Z,68.79
2022-09-13T09:39:17.765Z,67.55
2022-09-13T09:41:50.046Z,61.91
2022-09-13T09:44:23.405Z,63.60
2022-09-13T09:47:02.806Z,63.32
2022-09-13T09:49:53.366Z,65.05
2022-09-13T09:52:31.765Z,62.19
2022-09-13T09:55:27.985Z,63.56
2022-09-13T09:58:02.806Z,65.66
2022-09-13T10:00:50.329Z,67.36
2022-09-13T10:03:27.573Z,65.29
2022-09-13T10:06:10.007Z,62.97
2022-09-13T10:08:45.047Z,65.19
2022-09-13T10:11:22.647Z,64.87
2022-09-13T10:14:03.646Z,63.43
2022-09-13T10:16:35.758Z,63.12
2022-09-13T10:19:28.685Z,63.87
2022-09-13T10:22:06.367Z,61.51
2022-09-13T10:24:39.288Z,61.78
2022-09-13T10:27:33.726Z,64.63
2022-09-13T10:30:08.635Z,61.06
2022-09-13T10:32:40.037Z,64.94
2022-09-13T10:35:20.116Z,66.05
2022-09-13T10:37:54.269Z,64.42
2022-09-13T10:40:31.361Z,63.29
2022-09-13T10:43:11.214Z,66.90
2022-09-13T10:45:45.627Z,65.05
2022-09-13T10:48:20.408Z,65.08
2022-09-13T10:51:07.827Z,65.89
2022-09-13T10:53:42.028Z,66.84
2022-09-13T10:56:28.526Z,65.64
2022-09-13T10:59:24.189Z,65.06
2022-09-13T11:02:24.055Z,66.21
2022-09-13T11:05:24.316Z,66.53
2022-09-13T11:08:22.878Z,67.77
2022-09-13T11:11:13.645Z,68.62
2022-09-13T11:14:04.842Z,66.82
2022-09-13T11:16:54.784Z,68.29
2022-09-13T11:19:57.311Z,70.91
2022-09-13T11:22:44.896Z,70.80
2022-09-13T11:25:47.108Z,73.81
2022-09-13T11:28:28.558Z,71.79
2022-09-13T11:31:26.593Z,73.12
2022-09-13T11:34:20.450Z,72.43
2022-09-13T11:37:22.817Z,73.56
2022-09-13T11:40:07.488Z,75.35
2022-09-13T11:42:49.677Z,75.32
2022-09-13T11:45:30.576Z,75.39
2022-09-13T11:48:27.708Z,76.01
2022-09-13T11:51:16.096Z,77.73
2022-09-13T11:54:14.910Z,76.18
2022-09-13T11:56:51.744Z,77.04
2022-09-13T11:59:36.427Z,78.12
2022-09-13T12:02:22.512Z,77.92
2022-09-13T12:05:20.987Z,78.58
2022-09-13T12:08:01.663Z,79.60
2022-09-13T12:10:51.998Z,79.04
2022-09-13T12:13:28.014Z,80.72
2022-09-13T12:16:05.175Z,82.24
2022-09-13T12:18:44.465Z,79.75
2022-09-13T12:21:20.548Z,79.36
2022-09-13T12:24:04.456Z,80.84
2022-09-13T12:26:46.851Z,81.88
2022-09-13T12:29:25.639Z,81.38
2022-09-13T12:32:03.790Z,81.42
2022-09-13T12:34:45.865Z,83.97
2022-09-13T12:37:44.924Z,82.49
2022-09-13T12:40:54.606Z,85.41
2022-09-13T12:43:54.486Z,86.66
2022-09-13T12:46:53.419Z,86.40
2022-09-13T12:49:46.848Z,86.81
2022-09-13T12:52:35.679Z,87.10
2022-09-13T12:55:53.943Z,86.27
2022-09-13T12:58:54.764Z,86.47
2022-09-13T13:01:31.242Z,85.53
2022-09-13T13:04:11.665Z,83.72
2022-09-13T13:06:52.886Z,84.87
2022-09-13T13:09:39.542Z,87.47
2022-09-13T13:12:12.878Z,88.02
2022-09-13T13:14:54.691Z,88.78
2022-09-13T13:17:47.551Z,85.41
2022-09-13T13:20:44.452Z,87.73
2022-09-13T13:23:27.444Z,86.76
2022-09-13T13:26:09.015Z,84.89
2022-09-13T13:29:10.630Z,84.31
2022-09-13T13:31:47.094Z,84.58
2022-09-13T13:34:43.339Z,83.62
2022-09-13T13:37:33.885Z,85.65
2022-09-13T13:40:27.239Z,84.57
2022-09-13T13:43:32.620Z,82.85
2022-09-13T13:46:30.639Z,85.00
2022-09-13T13:49:53.644Z,83.30
2022-09-13T13:52:41.497Z,82.94
2022-09-13T13:55:42.566Z,81.00
2022-09-13T13:58:33.708Z,81.69
2022-09-13T14:01:06.957Z,81.97
2022-09-13T14:03:53.729Z,79.48
2022-09-13T14:06:37.876Z,78.59
2022-09-13T14:09:23.567Z,77.61
2022-09-13T14:12:08.971Z,78.68
2022-09-13T14:14:58.234Z,78.57
2022-09-13T14:18:15.605Z,77.62
2022-09-13T14:21:05.152Z,76.50
2022-09-13T14:23:40.386Z,77.32
2022-09-13T14:26:15.444Z,78.06
2022-09-13T14:28:48.342Z,76.11
2022-09-13T14:31:23.546Z,76.92
2022-09-13T14:33:56.202Z,75.03
2022-09-13T14:36:30.041Z,74.93
2022-09-13T14:39:05.289Z,75.74
2022-09-13T14:41:41.682Z,76.09
2022-09-13T14:44:25.054Z,75.82
2022-09-13T14:47:09.845Z,76.10
2022-09-13T14:49:49.340Z,77.19
2022-09-13T14:52:30.759Z,78.54
2022-09-13T14:55:12.120Z,77.99
2022-09-13T14:57:51.399Z,77.22
2022-09-13T15:00:26.267Z,77.03
2022-09-13T15:03:02.920Z,77.39
2022-09-13T15:05:37.609Z,77.16
2022-09-13T15:08:45.536Z,76.10
2022-09-13T15:11:45.160Z,73.83
2022-09-13T15:14:47.955Z,74.24
2022-09-13T15:17:34.317Z,73.46
2022-09-13T15:20:08.869Z,73.48
2022-09-13T15:22:45.904Z,74.29
2022-09-13T15:25:24.142Z,76.00
2022-09-13T15:31:24.182Z,75.41
2022-09-13T15:34:23.752Z,75.46
2022-09-13T15:37:16.117Z,75.29
2022-09-13T15:39:49.760Z,75.88
2022-09-13T15:42:22.253Z,76.46
2022-09-13T15:44:54.025Z,75.70
2022-09-13T15:47:28.238Z,74.42
2022-09-13T15:50:00.023Z,74.51
2022-09-13T15:52:32.692Z,74.51
2022-09-13T15:55:04.735Z,75.41
2022-09-13T15:57:37.534Z,75.46
2022-09-13T16:00:17.617Z,75.71
2022-09-13T16:02:53.334Z,76.47
2022-09-13T16:05:25.502Z,76.52
2022-09-13T16:07:59.261Z,76.01
2022-09-13T16:10:31.972Z,77.52
2022-09-13T16:13:04.429Z,77.30
2022-09-13T16:15:36.700Z,77.37
2022-09-13T16:18:12.293Z,77.33
2022-09-13T16:20:44.382Z,77.94
2022-09-13T16:23:16.598Z,78.22
2022-09-13T16:25:51.077Z,79.19
2022-09-13T16:28:22.890Z,79.03
2022-09-13T16:31:04.933Z,79.58
2022-09-13T16:33:44.788Z,80.25
2022-09-13T16:36:20.734Z,80.50
2022-09-13T16:38:52.335Z,81.57
2022-09-13T16:41:23.951Z,81.53
2022-09-13T16:43:58.056Z,82.38
2022-09-13T16:46:30.159Z,82.93
2022-09-13T16:49:05.961Z,82.94
2022-09-13T16:51:38.212Z,83.23
2022-09-13T16:54:15.054Z,83.47
2022-09-13T16:56:46.367Z,83.68
2022-09-13T16:59:22.943Z,85.39
2022-09-13T17:01:58.175Z,84.86
2022-09-13T17:04:33.188Z,84.68
2022-09-13T17:07:07.757Z,84.87
2022-09-13T17:09:40.761Z,84.99
2022-09-13T17:12:15.774Z,85.80
2022-09-13T17:14:51.335Z,85.71
2022-09-13T17:17:22.934Z,85.85
2022-09-13T17:20:02.012Z,85.96
2022-09-13T17:22:59.386Z,86.71
2022-09-13T17:25:31.536Z,87.01
2022-09-13T17:28:02.994Z,87.18
2022-09-13T17:30:34.593Z,87.02
2022-09-13T17:33:08.136Z,87.75
2022-09-13T17:35:43.874Z,88.35
2022-09-13T17:38:15.189Z,87.53
2022-09-13T17:40:47.103Z,87.62
2022-09-13T17:43:18.850Z,87.67
2022-09-13T17:45:50.359Z,87.79
2022-09-13T17:48:22.609Z,88.84
2022-09-13T17:50:57.996Z,87.99
2022-09-13T17:53:29.672Z,88.16
2022-09-13T17:56:01.652Z,88.78
2022-09-13T17:58:35.249Z,88.43
2022-09-13T18:01:13.844Z,88.48
2022-09-13T18:03:49.629Z,88.76
2022-09-13T18:06:24.921Z,88.50
2022-09-13T18:08:58.682Z,89.24
2022-09-13T18:11:31.349Z,89.72
2022-09-13T18:14:03.520Z,89.33
2022-09-13T18:16:36.546Z,89.71
2022-09-13T18:19:09.196Z,90.57
2022-09-13T18:21:44.480Z,90.52
2022-09-13T18:24:16.742Z,89.85
2022-09-13T18:26:49.701Z,89.78
2022-09-13T18:29:22.067Z,89.46
2022-09-13T18:31:54.842Z,90.08
2022-09-13T18:34:27.812Z,90.00
2022-09-13T18:37:03.260Z,90.61
2022-09-13T18:39:35.979Z,91.01
2022-09-13T18:42:08.881Z,91.14
2022-09-13T18:44:41.103Z,92.60
2022-09-13T18:47:13.624Z,92.58
2022-09-13T18:49:45.739Z,91.93
2022-09-13T18:52:20.896Z,91.82
2022-09-13T18:54:53.200Z,90.75
2022-09-13T18:57:25.602Z,92.52
2022-09-13T19:00:17.607Z,95.55
2022-09-13T19:03:11.335Z,95.28
2022-09-13T19:05:43.801Z,93.61
2022-09-13T19:08:19.261Z,94.25
2022-09-13T19:10:51.165Z,93.49
2022-09-13T19:13:27.217Z,92.40
2022-09-13T19:16:01.668Z,91.82
2022-09-13T19:18:33.822Z,92.36
2022-09-13T19:21:07.016Z,91.76
2022-09-13T19:23:58.505Z,91.62
2022-09-13T19:26:33.008Z,91.31
2022-09-13T19:29:10.778Z,91.48
2022-09-13T19:31:44.176Z,91.33
2022-09-13T19:34:16.057Z,91.69
2022-09-13T19:36:49.430Z,91.98
2022-09-13T19:39:29.137Z,92.27
2022-09-13T19:42:04.926Z,92.46
2022-09-13T19:44:38.104Z,95.59
2022-09-13T19:48:02.243Z,96.22
2022-09-13T19:50:04.161Z,95.20
2022-09-13T19:52:36.066Z,97.61
2022-09-13T19:55:11.886Z,96.94
2022-09-13T19:57:45.138Z,96.83
2022-09-13T20:00:17.825Z,94.88
2022-09-13T20:02:51.488Z,96.47
2022-09-13T20:05:27.931Z,94.73
2022-09-13T20:08:00.011Z,93.35
2022-09-13T20:10:34.798Z,92.98
2022-09-13T20:13:06.001Z,94.27
2022-09-13T20:15:37.770Z,92.48
2022-09-13T20:18:13.821Z,92.27
2022-09-13T20:20:49.088Z,91.46
2022-09-13T20:23:20.922Z,91.81
2022-09-13T20:25:55.176Z,91.08
2022-09-13T20:28:26.384Z,90.29
2022-09-13T20:31:00.208Z,89.36
2022-09-13T20:33:31.417Z,89.20
2022-09-13T20:36:07.029Z,86.91
2022-09-13T20:38:38.494Z,85.18
2022-09-13T20:41:16.373Z,84.05
2022-09-13T20:43:49.228Z,84.11
2022-09-13T20:46:22.811Z,83.24
2022-09-13T20:48:59.614Z,81.93
2022-09-13T20:51:34.637Z,82.01
2022-09-13T20:54:09.182Z,81.60
2022-09-13T20:56:46.589Z,80.59
2022-09-13T20:59:17.853Z,80.12
2022-09-13T21:01:50.486Z,79.37
2022-09-13T21:04:22.841Z,79.53
2022-09-13T21:07:09.843Z,79.96
2022-09-13T21:09:43.808Z,79.93
2022-09-13T21:12:21.451Z,80.58
2022-09-13T21:14:52.917Z,80.63
2022-09-13T21:17:24.705Z,81.25
2022-09-13T21:19:56.197Z,79.23
2022-09-13T21:22:28.889Z,79.19
2022-09-13T21:25:00.435Z,78.58
2022-09-13T21:27:34.580Z,79.06
2022-09-13T21:30:08.480Z,79.87
2022-09-13T21:32:41.153Z,79.75
2022-09-13T21:35:13.177Z,80.79
2022-09-13T21:37:45.145Z,79.94
2022-09-13T21:40:17.354Z,80.34
2022-09-13T21:42:51.546Z,80.51
2022-09-13T21:45:22.880Z,81.40
2022-09-13T21:47:54.869Z,80.40
2022-09-13T21:50:26.249Z,80.60
2022-09-13T21:52:57.938Z,81.02
2022-09-13T21:55:31.390Z,80.41
2022-09-13T21:58:06.651Z,80.49
2022-09-13T22:00:39.054Z,80.76
2022-09-13T22:03:12.077Z,79.75
2022-09-13T22:05:43.713Z,78.93
2022-09-13T22:08:15.745Z,78.56
2022-09-13T22:10:47.280Z,78.53
2022-09-13T22:13:21.669Z,77.92
2022-09-13T22:15:53.101Z,78.33
2022-09-13T22:18:24.882Z,78.37
2022-09-13T22:20:56.084Z,78.49
2022-09-13T22:23:27.922Z,78.54
2022-09-13T22:25:59.406Z,77.95
2022-09-13T22:28:34.413Z,77.70
2022-09-13T22:31:10.659Z,77.81
2022-09-13T22:34:12.478Z,76.71
2022-09-13T22:36:45.102Z,76.20
2022-09-13T22:39:19.652Z,76.56
2022-09-13T22:41:51.403Z,76.16
2022-09-13T22:44:26.064Z,76.25
2022-09-13T22:47:00.582Z,76.43
2022-09-13T22:49:32.743Z,76.32
2022-09-13T22:52:04.762Z,75.99
2022-09-13T22:54:39.684Z,75.86
2022-09-13T22:57:11.234Z,75.74
2022-09-13T23:00:37.114Z,76.43
2022-09-13T23:03:29.299Z,76.57
2022-09-13T23:06:01.482Z,76.36
2022-09-13T23:08:35.714Z,77.19
2022-09-13T23:11:15.583Z,77.51
2022-09-13T23:13:48.574Z,78.33
2022-09-13T23:16:27.447Z,78.59
2022-09-13T23:19:00.309Z,79.22
2022-09-13T23:21:34.096Z,78.93
2022-09-13T23:24:07.482Z,79.51
2022-09-13T23:26:39.977Z,82.45
2022-09-13T23:29:17.305Z,80.47
2022-09-13T23:31:52.559Z,79.87
2022-09-13T23:34:25.412Z,79.01
2022-09-13T23:36:57.453Z,79.86
2022-09-13T23:39:29.513Z,79.14
2022-09-13T23:42:01.578Z,78.92
2022-09-13T23:44:33.151Z,79.67
2022-09-13T23:47:09.791Z,79.08
2022-09-13T23:49:41.378Z,79.34
2022-09-13T23:52:41.934Z,78.80
2022-09-13T23:59:15.966Z,79.31
